This is the latest recevied weather packets stored in our database for station/object KB6HGN. If no packets are shown the sender has not sent any weather packets the latest 10 day(s).
| Time | Temp. | Humidity | Pressure | Rain* | Wind** | Luminosity | Snow |
|---|---|---|---|---|---|---|---|
| 1778338805 | 17.22° C | 82% | 1014.6 hPa | 0 mm | - | 302 W/m² | - |
| 1778336104 | 16.11° C | 85% | 1014.5 hPa | 0 mm | - | 91 W/m² | - |
| 1778335504 | 15.56° C | 85% | 1014.5 hPa | 0 mm | - | 64 W/m² | - |
| 1778335204 | 15.56° C | 86% | 1014.5 hPa | 0 mm | - | 52 W/m² | - |
| 1778334304 | 15° C | 86% | 1014.5 hPa | 0 mm | - | 26 W/m² | - |
| 1778329504 | 14.44° C | 84% | 1013.8 hPa | 0 mm | - | 0 W/m² | - |
| 1778327405 | 14.44° C | 84% | 1013.8 hPa | 0 mm | - | 0 W/m² | - |
| 1778326505 | 15° C | 84% | 1013.9 hPa | 0 mm | - | 0 W/m² | - |
| 1778325605 | 15.56° C | 83% | 1013.9 hPa | 0 mm | - | 0 W/m² | - |
| 1778322004 | 15.56° C | 80% | 1014.1 hPa | 0 mm | - | 0 W/m² | - |
| 1778321405 | 15° C | 80% | 1014.2 hPa | 0 mm | - | 0 W/m² | - |
| 1778319904 | 15° C | 79% | 1014.2 hPa | 0 mm | - | 0 W/m² | - |
| 1778318404 | 16.11° C | 78% | 1014.2 hPa | 0 mm | - | 0 W/m² | - |
| 1778317805 | 15.56° C | 78% | 1014.2 hPa | 0 mm | - | 0 W/m² | - |
| 1778314805 | 16.11° C | 76% | 1014.6 hPa | 0 mm | - | 0 W/m² | - |
| 1778313604 | 16.67° C | 75% | 1014.9 hPa | 0 mm | - | 0 W/m² | - |
| 1778311504 | 17.22° C | 75% | 1014.9 hPa | 0 mm | - | 0 W/m² | - |
| 1778310004 | 17.78° C | 72% | 1015.2 hPa | 0 mm | - | 0 W/m² | - |
| 1778305804 | 18.89° C | 68% | 1015.2 hPa | 0 mm | - | 0 W/m² | - |
| 1778304604 | 18.89° C | 67% | 1015.2 hPa | 0 mm | - | 0 W/m² | - |
| 1778304004 | 19.44° C | 65% | 1015.2 hPa | 0 mm | - | 0 W/m² | - |
| 1778302504 | 19.44° C | 65% | 1014.9 hPa | 0 mm | - | 0 W/m² | - |
| 1778301605 | 20° C | 63% | 1014.9 hPa | 0 mm | - | 0 W/m² | - |
| 1778301005 | 20.56° C | 61% | 1014.6 hPa | 0 mm | - | 0 W/m² | - |
| 1778299804 | 21.11° C | 58% | 1014.2 hPa | 0 mm | - | 0 W/m² | - |
* Rain latest hour (hover to see other rain measurements)
** Current wind speed in m/s (hover to see current wind gust speed)